createdAt,value
2023-04-11T00:01:39.856Z,8.60
2023-04-11T00:04:08.161Z,8.60
2023-04-11T00:06:36.277Z,8.60
2023-04-11T00:09:04.366Z,8.60
2023-04-11T00:11:33.333Z,8.50
2023-04-11T00:14:01.322Z,8.30
2023-04-11T00:16:29.357Z,8.30
2023-04-11T00:18:58.702Z,8.30
2023-04-11T00:21:26.773Z,8.20
2023-04-11T00:23:55.083Z,8.10
2023-04-11T00:26:23.166Z,8.00
2023-04-11T00:28:51.164Z,8.00
2023-04-11T00:31:19.279Z,8.00
2023-04-11T00:33:47.297Z,8.00
2023-04-11T00:36:16.792Z,7.80
2023-04-11T00:38:46.409Z,7.70
2023-04-11T00:41:14.442Z,7.70
2023-04-11T00:43:42.437Z,7.70
2023-04-11T00:46:10.571Z,7.50
2023-04-11T00:48:38.585Z,7.40
2023-04-11T00:51:06.943Z,7.10
2023-04-11T00:53:38.244Z,7.10
2023-04-11T00:56:07.129Z,7.00
2023-04-11T00:58:37.578Z,6.90
2023-04-11T01:01:09.419Z,6.80
2023-04-11T01:03:38.376Z,6.80
2023-04-11T01:06:08.751Z,6.90
2023-04-11T01:08:40.669Z,6.90
2023-04-11T01:11:10.669Z,7.10
2023-04-11T01:13:41.478Z,7.30
2023-04-11T01:16:10.995Z,7.10
2023-04-11T01:18:39.097Z,6.70
2023-04-11T01:21:07.623Z,6.70
2023-04-11T01:23:36.985Z,6.90
2023-04-11T01:26:05.049Z,7.10
2023-04-11T01:28:33.022Z,7.30
2023-04-11T01:31:00.989Z,7.40
2023-04-11T01:33:29.083Z,7.50
2023-04-11T01:35:57.135Z,7.50
2023-04-11T01:38:25.286Z,7.40
2023-04-11T01:40:55.753Z,7.50
2023-04-11T01:43:23.882Z,7.50
2023-04-11T01:45:51.924Z,7.30
2023-04-11T01:48:21.595Z,7.30
2023-04-11T01:50:51.043Z,7.00
2023-04-11T01:53:19.019Z,7.00
2023-04-11T01:55:46.964Z,6.80
2023-04-11T01:58:16.441Z,6.90
2023-04-11T02:00:44.422Z,6.80
2023-04-11T02:03:12.767Z,6.90
2023-04-11T02:05:40.969Z,7.10
2023-04-11T02:08:08.953Z,7.30
2023-04-11T02:10:36.900Z,7.20
2023-04-11T02:13:05.004Z,7.20
2023-04-11T02:15:34.465Z,7.00
2023-04-11T02:18:02.544Z,7.00
2023-04-11T02:20:30.543Z,7.00
2023-04-11T02:22:58.930Z,7.00
2023-04-11T02:25:26.967Z,7.00
2023-04-11T02:27:54.967Z,7.00
2023-04-11T02:30:23.013Z,6.90
2023-04-11T02:32:52.413Z,6.90
2023-04-11T02:35:20.549Z,7.00
2023-04-11T02:37:48.525Z,7.10
2023-04-11T02:40:16.665Z,7.20
2023-04-11T02:42:44.714Z,7.10
2023-04-11T02:45:12.940Z,7.00
2023-04-11T02:47:41.363Z,7.30
2023-04-11T02:50:11.898Z,7.30
2023-04-11T02:52:42.278Z,7.30
2023-04-11T02:55:10.844Z,7.30
2023-04-11T02:57:39.290Z,7.30
2023-04-11T03:00:09.721Z,7.30
2023-04-11T03:02:37.872Z,7.00
2023-04-11T03:05:06.831Z,7.10
2023-04-11T03:07:38.478Z,7.00
2023-04-11T03:10:07.808Z,6.90
2023-04-11T03:12:35.743Z,6.90
2023-04-11T03:15:03.811Z,6.70
2023-04-11T03:17:31.846Z,6.40
2023-04-11T03:19:59.866Z,6.40
2023-04-11T03:22:27.858Z,6.60
2023-04-11T03:24:57.223Z,6.60
2023-04-11T03:27:25.211Z,6.50
2023-04-11T03:29:53.183Z,6.50
2023-04-11T03:32:21.306Z,6.40
2023-04-11T03:34:49.277Z,6.60
2023-04-11T03:37:17.246Z,6.50
2023-04-11T03:39:45.265Z,6.30
2023-04-11T03:42:14.645Z,6.30
2023-04-11T03:44:42.623Z,6.40
2023-04-11T03:47:10.697Z,6.70
2023-04-11T03:49:38.727Z,6.70
2023-04-11T03:52:09.693Z,6.60
2023-04-11T03:54:38.130Z,6.70
2023-04-11T03:57:06.109Z,6.90
2023-04-11T03:59:35.476Z,7.00
2023-04-11T04:02:03.589Z,7.00
2023-04-11T04:04:32.375Z,7.10
2023-04-11T04:07:01.776Z,7.10
2023-04-11T04:09:29.716Z,7.20
2023-04-11T04:11:57.685Z,7.20
2023-04-11T04:14:25.662Z,7.30
2023-04-11T04:16:55.049Z,7.30
2023-04-11T04:19:23.055Z,7.00
2023-04-11T04:21:51.155Z,6.80
2023-04-11T04:24:19.121Z,6.90
2023-04-11T04:26:50.017Z,7.00
2023-04-11T04:29:18.215Z,7.10
2023-04-11T04:31:50.666Z,7.20
2023-04-11T04:34:21.751Z,7.30
2023-04-11T04:36:50.120Z,7.30
2023-04-11T04:39:18.507Z,7.20
2023-04-11T04:41:48.819Z,7.10
2023-04-11T04:44:17.574Z,7.10
2023-04-11T04:46:45.568Z,6.70
2023-04-11T04:49:13.533Z,6.60
2023-04-11T04:51:42.939Z,6.60
2023-04-11T04:54:10.955Z,6.80
2023-04-11T04:56:38.974Z,7.00
2023-04-11T04:59:06.950Z,6.80
2023-04-11T05:01:35.303Z,6.80
2023-04-11T05:04:03.733Z,7.20
2023-04-11T05:06:33.012Z,7.30
2023-04-11T05:09:05.956Z,7.30
2023-04-11T05:11:34.673Z,7.30
2023-04-11T05:14:02.864Z,7.20
2023-04-11T05:16:31.078Z,7.30
2023-04-11T05:18:59.094Z,7.60
2023-04-11T05:21:27.672Z,7.40
2023-04-11T05:23:55.875Z,7.40
2023-04-11T05:26:25.542Z,7.30
2023-04-11T05:28:53.540Z,7.40
2023-04-11T05:31:21.707Z,7.30
2023-04-11T05:33:49.705Z,7.50
2023-04-11T05:36:17.731Z,7.70
2023-04-11T05:38:47.031Z,7.40
2023-04-11T05:41:15.048Z,7.70
2023-04-11T05:43:44.599Z,7.80
2023-04-11T05:46:12.793Z,7.60
2023-04-11T05:48:41.437Z,7.50
2023-04-11T05:51:09.706Z,7.40
2023-04-11T05:53:37.717Z,7.80
2023-04-11T05:56:06.171Z,8.20
2023-04-11T05:58:34.685Z,8.30
2023-04-11T06:01:04.044Z,8.50
2023-04-11T06:03:32.129Z,8.80
2023-04-11T06:06:01.639Z,8.70
2023-04-11T06:08:29.728Z,8.90
2023-04-11T06:10:57.727Z,9.10
2023-04-11T06:13:26.116Z,9.40
2023-04-11T06:15:54.119Z,9.40
2023-04-11T06:18:23.536Z,9.30
2023-04-11T06:20:51.509Z,9.30
2023-04-11T06:23:19.438Z,9.50
2023-04-11T06:25:47.419Z,9.60
2023-04-11T06:28:15.795Z,9.60
2023-04-11T06:30:43.819Z,9.50
2023-04-11T06:33:11.967Z,9.20
2023-04-11T06:35:41.375Z,9.40
2023-04-11T06:38:09.365Z,9.40
2023-04-11T06:40:37.545Z,9.60
2023-04-11T06:43:05.626Z,9.70
2023-04-11T06:45:34.027Z,9.80
2023-04-11T06:48:01.991Z,10.00
2023-04-11T06:50:30.049Z,9.90
2023-04-11T06:52:59.648Z,10.00
2023-04-11T06:55:27.636Z,10.30
2023-04-11T06:57:55.634Z,10.70
2023-04-11T07:00:23.983Z,10.90
2023-04-11T07:02:52.580Z,11.00
2023-04-11T07:05:20.883Z,11.00
2023-04-11T07:07:48.893Z,11.00
2023-04-11T07:10:19.302Z,11.10
2023-04-11T07:12:47.280Z,11.20
2023-04-11T07:15:15.259Z,11.60
2023-04-11T07:17:43.277Z,11.50
2023-04-11T07:20:12.449Z,11.40
2023-04-11T07:22:43.652Z,11.30
2023-04-11T07:25:11.863Z,11.30
2023-04-11T07:27:43.789Z,11.50
2023-04-11T07:30:12.683Z,11.90
2023-04-11T07:32:40.757Z,12.20
2023-04-11T07:35:09.371Z,12.30
2023-04-11T07:37:37.342Z,12.70
2023-04-11T07:40:10.856Z,12.70
2023-04-11T07:42:40.477Z,13.00
2023-04-11T07:45:09.650Z,13.20
2023-04-11T07:47:37.849Z,13.20
2023-04-11T07:50:06.846Z,13.40
2023-04-11T07:52:34.861Z,13.60
2023-04-11T07:55:03.021Z,13.60
2023-04-11T07:57:31.355Z,13.30
2023-04-11T08:00:01.900Z,12.90
2023-04-11T08:02:30.058Z,12.80
2023-04-11T08:04:58.189Z,12.60
2023-04-11T08:07:26.309Z,12.80
2023-04-11T08:09:54.321Z,13.20
2023-04-11T08:12:22.285Z,13.50
2023-04-11T08:14:50.318Z,13.60
2023-04-11T08:17:27.728Z,13.40
2023-04-11T08:19:57.464Z,13.80
2023-04-11T08:22:26.014Z,13.70
2023-04-11T08:24:53.998Z,13.90
2023-04-11T08:27:21.977Z,14.00
2023-04-11T08:29:49.960Z,14.40
2023-04-11T08:32:19.368Z,14.60
2023-04-11T08:34:47.405Z,14.90
2023-04-11T08:37:15.628Z,15.00
2023-04-11T08:39:43.643Z,15.30
2023-04-11T08:42:23.723Z,15.00
2023-04-11T08:44:55.185Z,15.10
2023-04-11T08:47:24.825Z,15.00
2023-04-11T08:49:53.630Z,15.20
2023-04-11T08:52:22.647Z,15.20
2023-04-11T08:54:55.160Z,16.00
2023-04-11T08:57:28.284Z,18.10
2023-04-11T09:00:00.185Z,20.10
2023-04-11T09:02:29.647Z,21.70
2023-04-11T09:04:59.033Z,21.20
2023-04-11T09:07:27.192Z,21.60
2023-04-11T09:09:55.364Z,21.00
2023-04-11T09:12:30.511Z,21.30
2023-04-11T09:14:58.529Z,21.40
2023-04-11T09:17:26.584Z,21.00
2023-04-11T09:19:55.935Z,20.70
2023-04-11T09:22:36.450Z,20.70
2023-04-11T09:25:04.756Z,20.60
2023-04-11T09:27:32.726Z,20.10
2023-04-11T09:30:03.699Z,20.00
2023-04-11T09:32:34.011Z,20.20
2023-04-11T09:35:15.738Z,20.20
2023-04-11T09:37:45.764Z,21.50
2023-04-11T09:40:14.959Z,23.10
2023-04-11T09:42:43.262Z,25.00
2023-04-11T09:45:19.606Z,25.50
2023-04-11T09:47:48.428Z,24.80
2023-04-11T09:50:18.703Z,24.60
2023-04-11T09:52:47.493Z,25.30
2023-04-11T09:55:17.391Z,26.70
2023-04-11T09:57:46.970Z,27.40
2023-04-11T10:00:17.105Z,26.30
2023-04-11T10:02:46.197Z,25.10
2023-04-11T10:05:15.874Z,24.30
2023-04-11T10:07:52.715Z,24.10
2023-04-11T10:10:21.820Z,23.50
2023-04-11T10:12:50.687Z,23.00
2023-04-11T10:15:19.450Z,23.10
2023-04-11T10:18:09.858Z,23.40
2023-04-11T10:20:46.668Z,24.30
2023-04-11T10:23:16.668Z,24.70
2023-04-11T10:25:52.510Z,24.40
2023-04-11T10:28:35.831Z,23.70
2023-04-11T10:31:06.860Z,22.80
2023-04-11T10:33:36.144Z,21.50
2023-04-11T10:36:06.690Z,21.20
2023-04-11T10:38:49.736Z,21.00
2023-04-11T10:41:19.846Z,20.50
2023-04-11T10:43:48.142Z,20.30
2023-04-11T10:46:21.458Z,20.00
2023-04-11T10:49:07.468Z,20.10
2023-04-11T10:51:36.050Z,20.40
2023-04-11T10:54:05.702Z,20.50
2023-04-11T10:57:01.086Z,20.50
2023-04-11T11:00:10.716Z,20.10
2023-04-11T11:02:40.265Z,20.10
2023-04-11T11:05:23.185Z,19.90
2023-04-11T11:07:53.089Z,19.80
2023-04-11T11:10:41.227Z,19.30
2023-04-11T11:13:10.008Z,19.60
2023-04-11T11:15:41.533Z,19.60
2023-04-11T11:18:11.205Z,19.40
2023-04-11T11:20:40.431Z,19.40
2023-04-11T11:23:10.069Z,19.40
2023-04-11T11:25:39.471Z,19.40
2023-04-11T11:28:08.552Z,19.70
2023-04-11T11:30:37.735Z,19.70
2023-04-11T11:33:19.089Z,19.60
2023-04-11T11:35:53.088Z,19.40
2023-04-11T11:38:22.023Z,19.40
2023-04-11T11:40:51.712Z,19.20
2023-04-11T11:43:19.809Z,19.10
2023-04-11T11:45:48.505Z,18.90
2023-04-11T11:48:24.160Z,18.80
2023-04-11T11:50:57.645Z,18.90
2023-04-11T11:53:26.908Z,18.90
2023-04-11T11:55:56.818Z,18.70
2023-04-11T11:58:24.847Z,18.70
2023-04-11T12:00:53.511Z,18.70
2023-04-11T12:03:24.311Z,18.50
2023-04-11T12:05:58.212Z,18.40
2023-04-11T12:08:26.309Z,18.40
2023-04-11T12:10:54.348Z,18.30
2023-04-11T12:13:26.667Z,18.40
2023-04-11T12:15:56.762Z,18.30
2023-04-11T12:18:26.304Z,18.30
2023-04-11T12:20:54.775Z,18.30
2023-04-11T12:23:23.779Z,18.40
2023-04-11T12:25:51.761Z,18.50
2023-04-11T12:28:19.758Z,18.70
2023-04-11T12:30:49.086Z,18.90
2023-04-11T12:33:17.507Z,19.10
2023-04-11T12:35:45.947Z,19.00
2023-04-11T12:38:16.631Z,18.80
2023-04-11T12:40:46.620Z,18.60
2023-04-11T12:43:14.666Z,18.70
2023-04-11T12:45:42.635Z,18.70
2023-04-11T12:48:11.953Z,18.70
2023-04-11T12:50:39.945Z,18.50
2023-04-11T12:53:08.012Z,18.50
2023-04-11T12:55:36.023Z,18.50
2023-04-11T12:58:04.111Z,18.50
2023-04-11T13:00:32.176Z,18.50
2023-04-11T13:03:00.279Z,18.70
2023-04-11T13:05:29.819Z,18.90
2023-04-11T13:07:57.853Z,18.90
2023-04-11T13:10:25.853Z,18.90
2023-04-11T13:12:58.514Z,18.70
2023-04-11T13:15:27.157Z,18.60
2023-04-11T13:17:55.261Z,18.60
2023-04-11T13:20:23.479Z,18.80
2023-04-11T13:22:53.037Z,18.80
2023-04-11T13:25:21.130Z,18.70
2023-04-11T13:27:49.123Z,18.80
2023-04-11T13:30:17.190Z,18.80
2023-04-11T13:32:45.679Z,18.60
2023-04-11T13:35:13.753Z,18.50
2023-04-11T13:37:42.015Z,18.50
2023-04-11T13:40:12.375Z,18.50
2023-04-11T13:42:40.420Z,18.50
2023-04-11T13:45:09.967Z,18.60
2023-04-11T13:47:38.871Z,18.80
2023-04-11T13:50:09.089Z,18.60
2023-04-11T13:52:37.543Z,18.40
2023-04-11T13:55:06.529Z,18.30
2023-04-11T13:57:36.100Z,18.20
2023-04-11T14:00:11.241Z,18.00
2023-04-11T14:02:39.832Z,17.70
2023-04-11T14:05:09.791Z,17.60
2023-04-11T14:07:37.811Z,17.50
2023-04-11T14:10:07.185Z,17.50
2023-04-11T14:12:36.590Z,17.40
2023-04-11T14:15:05.033Z,17.40
2023-04-11T14:17:33.051Z,17.40
2023-04-11T14:20:01.076Z,17.30
2023-04-11T14:22:29.139Z,17.30
2023-04-11T14:24:57.136Z,17.10
2023-04-11T14:27:25.503Z,17.20
2023-04-11T14:29:54.842Z,17.20
2023-04-11T14:32:22.857Z,17.20
2023-04-11T14:34:52.292Z,17.20
2023-04-11T14:37:20.327Z,17.20
2023-04-11T14:39:48.309Z,16.90
2023-04-11T14:42:16.327Z,16.80
2023-04-11T14:44:44.332Z,16.70
2023-04-11T14:47:14.286Z,16.50
2023-04-11T14:49:42.261Z,16.50
2023-04-11T14:52:10.249Z,16.30
2023-04-11T14:54:38.374Z,16.20
2023-04-11T14:57:06.443Z,16.10
2023-04-11T14:59:34.622Z,15.90
2023-04-11T15:02:03.086Z,15.80
2023-04-11T15:04:32.817Z,15.60
2023-04-11T15:07:01.505Z,15.50
2023-04-11T15:09:29.495Z,15.30
2023-04-11T15:11:57.477Z,15.20
2023-04-11T15:14:29.420Z,14.90
2023-04-11T15:16:57.639Z,14.90
2023-04-11T15:19:26.173Z,14.80
2023-04-11T15:21:55.766Z,14.60
2023-04-11T15:24:23.714Z,14.50
2023-04-11T15:26:51.738Z,14.40
2023-04-11T15:29:19.891Z,14.30
2023-04-11T15:31:47.893Z,14.20
2023-04-11T15:34:16.835Z,14.00
2023-04-11T15:36:45.239Z,13.90
2023-04-11T15:39:15.986Z,13.90
2023-04-11T15:41:44.000Z,13.70
2023-04-11T15:44:12.173Z,13.50
2023-04-11T15:46:40.225Z,13.40
2023-04-11T15:49:08.193Z,13.30
2023-04-11T15:51:36.175Z,13.20
2023-04-11T15:54:04.852Z,13.10
2023-04-11T15:56:34.493Z,13.00
2023-04-11T15:59:02.543Z,13.00
2023-04-11T16:01:30.968Z,13.00
2023-04-11T16:03:59.543Z,13.00
2023-04-11T16:06:27.799Z,12.90
2023-04-11T16:08:56.166Z,12.80
2023-04-11T16:11:24.193Z,12.70
2023-04-11T16:13:53.944Z,12.70
2023-04-11T16:16:21.931Z,12.50
2023-04-11T16:18:49.861Z,12.40
2023-04-11T16:21:18.042Z,12.30
2023-04-11T16:23:46.046Z,12.40
2023-04-11T16:26:14.097Z,12.30
2023-04-11T16:28:42.044Z,12.10
2023-04-11T16:31:11.509Z,12.10
2023-04-11T16:33:39.489Z,12.00
2023-04-11T16:36:08.004Z,11.90
2023-04-11T16:38:36.027Z,11.80
2023-04-11T16:41:04.228Z,11.40
2023-04-11T16:43:32.219Z,11.50
2023-04-11T16:46:00.246Z,11.40
2023-04-11T16:48:30.699Z,11.30
2023-04-11T16:50:59.176Z,11.20
2023-04-11T16:53:27.163Z,11.30
2023-04-11T16:55:55.757Z,11.20
2023-04-11T16:58:23.820Z,11.10
2023-04-11T17:00:53.118Z,11.10
2023-04-11T17:03:21.853Z,11.10
2023-04-11T17:05:51.714Z,10.80
2023-04-11T17:08:19.680Z,10.50
2023-04-11T17:10:47.656Z,10.30
2023-04-11T17:13:18.484Z,10.10
2023-04-11T17:15:46.964Z,10.00
2023-04-11T17:18:15.369Z,9.90
2023-04-11T17:20:46.640Z,9.70
2023-04-11T17:23:16.116Z,9.70
2023-04-11T17:25:44.216Z,9.80
2023-04-11T17:28:12.364Z,9.70
2023-04-11T17:30:40.362Z,9.80
2023-04-11T17:33:09.689Z,9.70
2023-04-11T17:35:37.828Z,9.60
2023-04-11T17:38:05.813Z,9.50
2023-04-11T17:40:35.310Z,9.30
2023-04-11T17:43:03.597Z,9.30
2023-04-11T17:45:31.672Z,9.20
2023-04-11T17:48:01.173Z,9.20
2023-04-11T17:50:29.531Z,9.10
2023-04-11T17:52:57.510Z,9.20
2023-04-11T17:55:25.742Z,9.20
2023-04-11T17:57:55.044Z,9.20
2023-04-11T18:00:23.362Z,9.20
2023-04-11T18:02:53.363Z,9.10
2023-04-11T18:05:25.680Z,9.20
2023-04-11T18:07:57.288Z,9.20
2023-04-11T18:10:26.224Z,9.20
2023-04-11T18:12:57.952Z,9.20
2023-04-11T18:15:27.928Z,9.10
2023-04-11T18:17:55.996Z,9.10
2023-04-11T18:20:24.182Z,9.10
2023-04-11T18:22:54.860Z,9.00
2023-04-11T18:25:23.387Z,9.00
2023-04-11T18:27:51.493Z,9.00
2023-04-11T18:30:20.846Z,9.10
2023-04-11T18:32:51.020Z,9.00
2023-04-11T18:35:19.691Z,9.10
2023-04-11T18:37:48.174Z,9.10
2023-04-11T18:40:17.128Z,8.90
2023-04-11T18:42:46.955Z,9.00
2023-04-11T18:45:17.916Z,9.00
2023-04-11T18:47:47.848Z,9.00
2023-04-11T18:50:16.225Z,8.90
2023-04-11T18:52:45.840Z,9.10
2023-04-11T18:55:15.295Z,9.10
2023-04-11T18:57:47.075Z,9.20
2023-04-11T19:00:18.912Z,9.20
2023-04-11T19:02:50.665Z,9.20
2023-04-11T19:05:19.219Z,9.20
2023-04-11T19:07:47.478Z,9.20
2023-04-11T19:10:15.419Z,9.30
2023-04-11T19:12:43.425Z,9.40
2023-04-11T19:15:12.663Z,9.30
2023-04-11T19:17:40.761Z,9.20
2023-04-11T19:20:13.554Z,9.20
2023-04-11T19:22:42.023Z,9.20
2023-04-11T19:25:11.625Z,9.30
2023-04-11T19:27:41.654Z,9.30
2023-04-11T19:30:11.424Z,9.30
2023-04-11T19:32:43.246Z,9.30
2023-04-11T19:35:13.338Z,9.40
2023-04-11T19:37:41.807Z,9.40
2023-04-11T19:40:13.548Z,9.40
2023-04-11T19:42:41.902Z,9.40
2023-04-11T19:45:11.920Z,9.40
2023-04-11T19:47:40.793Z,9.40
2023-04-11T19:50:13.884Z,9.40
2023-04-11T19:52:42.690Z,9.40
2023-04-11T19:55:11.221Z,9.40
2023-04-11T19:57:40.306Z,9.40
2023-04-11T20:00:13.982Z,9.30
2023-04-11T20:02:45.996Z,9.30
2023-04-11T20:05:18.267Z,9.30
2023-04-11T20:07:46.980Z,9.30
2023-04-11T20:10:16.415Z,9.30
2023-04-11T20:12:44.490Z,9.40
2023-04-11T20:15:12.897Z,9.50
2023-04-11T20:17:41.152Z,9.40
2023-04-11T20:20:12.095Z,9.40
2023-04-11T20:22:44.669Z,9.30
2023-04-11T20:25:12.939Z,9.40
2023-04-11T20:27:41.075Z,9.30
2023-04-11T20:30:10.712Z,9.20
2023-04-11T20:32:38.881Z,9.20
2023-04-11T20:35:08.898Z,9.20
2023-04-11T20:37:37.230Z,9.20
2023-04-11T20:40:09.616Z,9.20
2023-04-11T20:42:40.115Z,9.20
2023-04-11T20:45:10.709Z,9.10
2023-04-11T20:47:38.736Z,9.10
2023-04-11T20:50:09.048Z,9.00
2023-04-11T20:52:37.860Z,8.90
2023-04-11T20:55:08.583Z,8.90
2023-04-11T20:57:36.601Z,8.90
2023-04-11T21:00:12.148Z,8.90
2023-04-11T21:02:41.645Z,8.90
2023-04-11T21:05:10.324Z,8.90
2023-04-11T21:07:38.525Z,8.90
2023-04-11T21:10:09.286Z,8.90
2023-04-11T21:12:37.547Z,8.80
2023-04-11T21:15:06.763Z,8.80
2023-04-11T21:17:36.059Z,8.70
2023-04-11T21:20:10.136Z,8.70
2023-04-11T21:22:40.163Z,8.70
2023-04-11T21:25:10.832Z,8.70
2023-04-11T21:27:40.798Z,8.70
2023-04-11T21:30:10.065Z,8.60
2023-04-11T21:32:38.428Z,8.60
2023-04-11T21:35:09.742Z,8.60
2023-04-11T21:37:37.789Z,8.60
2023-04-11T21:40:06.782Z,8.60
2023-04-11T21:42:36.421Z,8.50
2023-04-11T21:45:04.578Z,8.50
2023-04-11T21:47:32.562Z,8.50
2023-04-11T21:50:00.530Z,8.50
2023-04-11T21:52:28.506Z,8.50
2023-04-11T21:54:56.523Z,8.50
2023-04-11T21:57:24.486Z,8.50
2023-04-11T21:59:53.850Z,8.50
2023-04-11T22:02:22.019Z,8.40
2023-04-11T22:05:04.665Z,8.50
2023-04-11T22:07:39.063Z,8.50
2023-04-11T22:10:10.454Z,8.60
2023-04-11T22:12:38.563Z,8.60
2023-04-11T22:15:12.707Z,8.60
2023-04-11T22:17:43.630Z,8.50
2023-04-11T22:20:12.989Z,8.50
2023-04-11T22:22:42.138Z,8.50
2023-04-11T22:25:11.555Z,8.40
2023-04-11T22:27:39.684Z,8.40
2023-04-11T22:30:11.199Z,8.40
2023-04-11T22:32:39.268Z,8.40
2023-04-11T22:35:08.270Z,8.40
2023-04-11T22:37:36.345Z,8.40
2023-04-11T22:40:06.095Z,8.40
2023-04-11T22:42:34.129Z,8.40
2023-04-11T22:45:02.215Z,8.20
2023-04-11T22:47:34.227Z,8.10
2023-04-11T22:50:03.740Z,8.10
2023-04-11T22:52:31.837Z,8.10
2023-04-11T22:54:59.858Z,8.20
2023-04-11T22:57:27.887Z,8.20
2023-04-11T22:59:55.999Z,8.20
2023-04-11T23:02:25.237Z,8.30
2023-04-11T23:04:54.853Z,8.20
2023-04-11T23:07:25.195Z,8.20
2023-04-11T23:09:53.654Z,8.20
2023-04-11T23:12:21.919Z,8.20
2023-04-11T23:14:50.452Z,8.10
2023-04-11T23:17:18.409Z,8.10
2023-04-11T23:19:47.124Z,8.10
2023-04-11T23:22:16.430Z,8.10
2023-04-11T23:24:44.362Z,8.20
2023-04-11T23:27:12.924Z,8.10
2023-04-11T23:29:41.704Z,8.20
2023-04-11T23:32:09.718Z,8.10
2023-04-11T23:34:37.679Z,8.20
2023-04-11T23:37:05.734Z,8.20
2023-04-11T23:39:35.035Z,8.10
2023-04-11T23:42:02.999Z,8.00
2023-04-11T23:44:31.286Z,7.90
2023-04-11T23:47:00.105Z,8.00
2023-04-11T23:49:28.036Z,7.90
2023-04-11T23:51:56.135Z,7.90
2023-04-11T23:54:27.519Z,8.00
2023-04-11T23:56:58.510Z,8.10
2023-04-11T23:59:27.133Z,8.00
